sensor_id;sensor_type;location;lat;lon;timestamp;temperature;humidity
17348;DHT22;8791;50.876;4.342;2023-03-31T00:01:09;12.80;99.90
17348;DHT22;8791;50.876;4.342;2023-03-31T00:03:36;12.90;99.90
17348;DHT22;8791;50.876;4.342;2023-03-31T00:06:08;12.80;99.90
17348;DHT22;8791;50.876;4.342;2023-03-31T00:08:36;12.80;99.90
17348;DHT22;8791;50.876;4.342;2023-03-31T00:11:05;12.80;99.90
17348;DHT22;8791;50.876;4.342;2023-03-31T00:13:34;12.80;99.90
17348;DHT22;8791;50.876;4.342;2023-03-31T00:16:03;12.70;99.90
17348;DHT22;8791;50.876;4.342;2023-03-31T00:18:31;12.70;99.90
17348;DHT22;8791;50.876;4.342;2023-03-31T00:21:06;12.60;99.90
17348;DHT22;8791;50.876;4.342;2023-03-31T00:23:33;12.60;99.90
17348;DHT22;8791;50.876;4.342;2023-03-31T00:26:00;12.60;99.90
17348;DHT22;8791;50.876;4.342;2023-03-31T00:28:27;12.60;99.90
17348;DHT22;8791;50.876;4.342;2023-03-31T00:30:59;12.50;99.90
17348;DHT22;8791;50.876;4.342;2023-03-31T00:33:28;12.40;99.90
17348;DHT22;8791;50.876;4.342;2023-03-31T00:35:55;12.50;99.90
17348;DHT22;8791;50.876;4.342;2023-03-31T00:38:26;12.40;99.90
17348;DHT22;8791;50.876;4.342;2023-03-31T00:40:53;12.30;99.90
17348;DHT22;8791;50.876;4.342;2023-03-31T00:43:27;12.20;99.90
17348;DHT22;8791;50.876;4.342;2023-03-31T00:45:59;12.20;99.90
17348;DHT22;8791;50.876;4.342;2023-03-31T00:48:30;12.20;99.90
17348;DHT22;8791;50.876;4.342;2023-03-31T00:50:58;12.10;99.90
17348;DHT22;8791;50.876;4.342;2023-03-31T00:53:30;12.10;99.90
17348;DHT22;8791;50.876;4.342;2023-03-31T00:56:00;12.00;99.90
17348;DHT22;8791;50.876;4.342;2023-03-31T00:58:27;12.00;99.90
17348;DHT22;8791;50.876;4.342;2023-03-31T01:01:00;12.10;99.90
17348;DHT22;8791;50.876;4.342;2023-03-31T01:03:30;12.10;99.90
17348;DHT22;8791;50.876;4.342;2023-03-31T01:06:01;12.20;99.90
17348;DHT22;8791;50.876;4.342;2023-03-31T01:08:30;12.10;99.90
17348;DHT22;8791;50.876;4.342;2023-03-31T01:11:00;12.00;99.90
17348;DHT22;8791;50.876;4.342;2023-03-31T01:13:29;12.10;99.90
17348;DHT22;8791;50.876;4.342;2023-03-31T01:15:56;12.00;99.90
17348;DHT22;8791;50.876;4.342;2023-03-31T01:18:23;11.90;99.90
17348;DHT22;8791;50.876;4.342;2023-03-31T01:21:12;12.00;99.90
17348;DHT22;8791;50.876;4.342;2023-03-31T01:26:57;12.00;99.90
17348;DHT22;8791;50.876;4.342;2023-03-31T01:29:45;12.10;99.90
17348;DHT22;8791;50.876;4.342;2023-03-31T01:32:35;12.00;99.90
17348;DHT22;8791;50.876;4.342;2023-03-31T01:35:43;11.90;99.90
17348;DHT22;8791;50.876;4.342;2023-03-31T01:38:59;11.90;99.90
17348;DHT22;8791;50.876;4.342;2023-03-31T01:41:39;11.90;99.90
17348;DHT22;8791;50.876;4.342;2023-03-31T01:44:14;11.90;99.90
17348;DHT22;8791;50.876;4.342;2023-03-31T01:46:49;11.80;99.90
17348;DHT22;8791;50.876;4.342;2023-03-31T01:49:22;11.80;99.90
17348;DHT22;8791;50.876;4.342;2023-03-31T01:51:55;12.00;99.90
17348;DHT22;8791;50.876;4.342;2023-03-31T01:54:31;11.90;99.90
17348;DHT22;8791;50.876;4.342;2023-03-31T01:57:08;11.70;99.90
17348;DHT22;8791;50.876;4.342;2023-03-31T01:59:42;11.80;99.90
17348;DHT22;8791;50.876;4.342;2023-03-31T02:02:14;11.80;99.90
17348;DHT22;8791;50.876;4.342;2023-03-31T02:04:48;11.80;99.90
17348;DHT22;8791;50.876;4.342;2023-03-31T02:07:18;11.80;99.90
17348;DHT22;8791;50.876;4.342;2023-03-31T02:09:50;11.70;99.90
17348;DHT22;8791;50.876;4.342;2023-03-31T02:12:21;11.70;99.90
17348;DHT22;8791;50.876;4.342;2023-03-31T02:14:51;11.90;99.90
17348;DHT22;8791;50.876;4.342;2023-03-31T02:17:22;11.80;99.90
17348;DHT22;8791;50.876;4.342;2023-03-31T02:19:56;11.80;99.90
17348;DHT22;8791;50.876;4.342;2023-03-31T02:22:24;11.70;99.90
17348;DHT22;8791;50.876;4.342;2023-03-31T02:24:53;11.70;99.90
17348;DHT22;8791;50.876;4.342;2023-03-31T02:27:25;11.60;99.90
17348;DHT22;8791;50.876;4.342;2023-03-31T02:29:53;11.70;99.90
17348;DHT22;8791;50.876;4.342;2023-03-31T02:32:22;11.70;99.90
17348;DHT22;8791;50.876;4.342;2023-03-31T02:34:50;11.70;99.90
17348;DHT22;8791;50.876;4.342;2023-03-31T02:37:17;11.70;99.90
17348;DHT22;8791;50.876;4.342;2023-03-31T02:39:46;11.70;99.90
17348;DHT22;8791;50.876;4.342;2023-03-31T02:42:15;11.80;99.90
17348;DHT22;8791;50.876;4.342;2023-03-31T02:44:43;11.90;99.90
17348;DHT22;8791;50.876;4.342;2023-03-31T02:47:12;11.80;99.90
17348;DHT22;8791;50.876;4.342;2023-03-31T02:49:42;11.90;99.90
17348;DHT22;8791;50.876;4.342;2023-03-31T02:52:20;11.90;99.90
17348;DHT22;8791;50.876;4.342;2023-03-31T02:55:08;11.90;99.90
17348;DHT22;8791;50.876;4.342;2023-03-31T02:57:58;11.80;99.90
17348;DHT22;8791;50.876;4.342;2023-03-31T03:00:38;11.80;99.90
17348;DHT22;8791;50.876;4.342;2023-03-31T03:03:17;11.80;99.90
17348;DHT22;8791;50.876;4.342;2023-03-31T03:05:49;11.80;99.90
17348;DHT22;8791;50.876;4.342;2023-03-31T03:08:28;11.80;99.90
17348;DHT22;8791;50.876;4.342;2023-03-31T03:11:05;11.90;99.90
17348;DHT22;8791;50.876;4.342;2023-03-31T03:13:39;11.90;99.90
17348;DHT22;8791;50.876;4.342;2023-03-31T03:16:11;11.90;99.90
17348;DHT22;8791;50.876;4.342;2023-03-31T03:18:43;11.80;99.90
17348;DHT22;8791;50.876;4.342;2023-03-31T03:21:10;11.70;99.90
17348;DHT22;8791;50.876;4.342;2023-03-31T03:23:37;11.60;99.90
17348;DHT22;8791;50.876;4.342;2023-03-31T03:26:04;11.70;99.90
17348;DHT22;8791;50.876;4.342;2023-03-31T03:28:31;11.60;99.90
17348;DHT22;8791;50.876;4.342;2023-03-31T03:30:58;11.60;99.90
17348;DHT22;8791;50.876;4.342;2023-03-31T03:33:26;11.50;99.90
17348;DHT22;8791;50.876;4.342;2023-03-31T03:35:53;11.20;99.90
17348;DHT22;8791;50.876;4.342;2023-03-31T03:38:19;11.20;99.90
17348;DHT22;8791;50.876;4.342;2023-03-31T03:40:46;11.20;99.90
17348;DHT22;8791;50.876;4.342;2023-03-31T03:43:13;11.00;99.90
17348;DHT22;8791;50.876;4.342;2023-03-31T03:45:40;11.00;99.90
17348;DHT22;8791;50.876;4.342;2023-03-31T03:48:06;10.90;99.90
17348;DHT22;8791;50.876;4.342;2023-03-31T03:50:36;10.90;99.90
17348;DHT22;8791;50.876;4.342;2023-03-31T03:53:03;10.90;99.90
17348;DHT22;8791;50.876;4.342;2023-03-31T03:55:30;10.90;99.90
17348;DHT22;8791;50.876;4.342;2023-03-31T03:57:57;10.80;99.90
17348;DHT22;8791;50.876;4.342;2023-03-31T04:00:23;10.80;99.90
17348;DHT22;8791;50.876;4.342;2023-03-31T04:02:50;10.70;99.90
17348;DHT22;8791;50.876;4.342;2023-03-31T04:05:17;10.80;99.90
17348;DHT22;8791;50.876;4.342;2023-03-31T04:07:45;10.80;99.90
17348;DHT22;8791;50.876;4.342;2023-03-31T04:10:12;10.70;99.90
17348;DHT22;8791;50.876;4.342;2023-03-31T04:12:39;10.70;99.90
17348;DHT22;8791;50.876;4.342;2023-03-31T04:15:07;10.70;99.90
17348;DHT22;8791;50.876;4.342;2023-03-31T04:17:34;10.60;99.90
17348;DHT22;8791;50.876;4.342;2023-03-31T04:20:04;10.60;99.90
17348;DHT22;8791;50.876;4.342;2023-03-31T04:22:33;10.60;99.90
17348;DHT22;8791;50.876;4.342;2023-03-31T04:25:07;10.70;99.90
17348;DHT22;8791;50.876;4.342;2023-03-31T04:27:39;10.60;99.90
17348;DHT22;8791;50.876;4.342;2023-03-31T04:30:12;10.60;99.90
17348;DHT22;8791;50.876;4.342;2023-03-31T04:32:47;10.60;99.90
17348;DHT22;8791;50.876;4.342;2023-03-31T04:35:15;10.60;99.90
17348;DHT22;8791;50.876;4.342;2023-03-31T04:37:43;10.50;99.90
17348;DHT22;8791;50.876;4.342;2023-03-31T04:40:11;10.60;99.90
17348;DHT22;8791;50.876;4.342;2023-03-31T04:42:38;10.70;99.90
17348;DHT22;8791;50.876;4.342;2023-03-31T04:45:05;10.70;99.90
17348;DHT22;8791;50.876;4.342;2023-03-31T04:47:32;10.80;99.90
17348;DHT22;8791;50.876;4.342;2023-03-31T04:49:59;10.70;99.90
17348;DHT22;8791;50.876;4.342;2023-03-31T04:52:26;10.70;99.90
17348;DHT22;8791;50.876;4.342;2023-03-31T04:54:53;10.80;99.90
17348;DHT22;8791;50.876;4.342;2023-03-31T04:57:21;10.90;99.90
17348;DHT22;8791;50.876;4.342;2023-03-31T04:59:47;10.90;99.90
17348;DHT22;8791;50.876;4.342;2023-03-31T05:02:14;11.00;99.90
17348;DHT22;8791;50.876;4.342;2023-03-31T05:04:48;11.10;99.90
17348;DHT22;8791;50.876;4.342;2023-03-31T05:07:15;11.10;99.90
17348;DHT22;8791;50.876;4.342;2023-03-31T05:09:42;11.20;99.90
17348;DHT22;8791;50.876;4.342;2023-03-31T05:12:09;11.20;99.90
17348;DHT22;8791;50.876;4.342;2023-03-31T05:14:37;11.30;99.90
17348;DHT22;8791;50.876;4.342;2023-03-31T05:17:04;11.30;99.90
17348;DHT22;8791;50.876;4.342;2023-03-31T05:19:31;11.30;99.90
17348;DHT22;8791;50.876;4.342;2023-03-31T05:21:58;11.30;99.90
17348;DHT22;8791;50.876;4.342;2023-03-31T05:24:25;11.30;99.90
17348;DHT22;8791;50.876;4.342;2023-03-31T05:26:52;11.30;99.90
17348;DHT22;8791;50.876;4.342;2023-03-31T05:29:20;11.30;99.90
17348;DHT22;8791;50.876;4.342;2023-03-31T05:31:49;11.40;99.90
17348;DHT22;8791;50.876;4.342;2023-03-31T05:34:17;11.30;99.90
17348;DHT22;8791;50.876;4.342;2023-03-31T05:36:44;11.30;99.90
17348;DHT22;8791;50.876;4.342;2023-03-31T05:39:12;11.40;99.90
17348;DHT22;8791;50.876;4.342;2023-03-31T05:41:39;11.40;99.90
17348;DHT22;8791;50.876;4.342;2023-03-31T05:44:06;11.30;99.90
17348;DHT22;8791;50.876;4.342;2023-03-31T05:46:33;11.40;99.90
17348;DHT22;8791;50.876;4.342;2023-03-31T05:49:01;11.50;99.90
17348;DHT22;8791;50.876;4.342;2023-03-31T05:51:28;11.50;99.90
17348;DHT22;8791;50.876;4.342;2023-03-31T05:53:55;11.50;99.90
17348;DHT22;8791;50.876;4.342;2023-03-31T05:56:22;11.50;99.90
17348;DHT22;8791;50.876;4.342;2023-03-31T05:58:49;11.50;99.90
17348;DHT22;8791;50.876;4.342;2023-03-31T06:01:16;11.60;99.90
17348;DHT22;8791;50.876;4.342;2023-03-31T06:03:45;11.70;99.90
17348;DHT22;8791;50.876;4.342;2023-03-31T06:06:14;11.70;99.90
17348;DHT22;8791;50.876;4.342;2023-03-31T06:08:42;11.80;99.90
17348;DHT22;8791;50.876;4.342;2023-03-31T06:11:11;11.70;99.90
17348;DHT22;8791;50.876;4.342;2023-03-31T06:13:40;11.80;99.90
17348;DHT22;8791;50.876;4.342;2023-03-31T06:16:09;11.70;99.90
17348;DHT22;8791;50.876;4.342;2023-03-31T06:18:36;11.70;99.90
17348;DHT22;8791;50.876;4.342;2023-03-31T06:21:04;11.80;99.90
17348;DHT22;8791;50.876;4.342;2023-03-31T06:23:33;11.80;99.90
17348;DHT22;8791;50.876;4.342;2023-03-31T06:26:00;11.90;99.90
17348;DHT22;8791;50.876;4.342;2023-03-31T06:28:28;11.90;99.90
17348;DHT22;8791;50.876;4.342;2023-03-31T06:31:00;11.90;99.90
17348;DHT22;8791;50.876;4.342;2023-03-31T06:33:27;12.00;99.90
17348;DHT22;8791;50.876;4.342;2023-03-31T06:35:54;12.00;99.90
17348;DHT22;8791;50.876;4.342;2023-03-31T06:38:22;12.00;99.90
17348;DHT22;8791;50.876;4.342;2023-03-31T06:40:50;12.00;99.90
17348;DHT22;8791;50.876;4.342;2023-03-31T06:43:17;12.10;99.90
17348;DHT22;8791;50.876;4.342;2023-03-31T06:45:44;12.20;99.90
17348;DHT22;8791;50.876;4.342;2023-03-31T06:48:10;12.30;99.90
17348;DHT22;8791;50.876;4.342;2023-03-31T06:50:37;12.20;99.90
17348;DHT22;8791;50.876;4.342;2023-03-31T06:53:05;12.30;99.90
17348;DHT22;8791;50.876;4.342;2023-03-31T06:55:32;12.30;99.90
17348;DHT22;8791;50.876;4.342;2023-03-31T06:58:00;12.30;99.90
17348;DHT22;8791;50.876;4.342;2023-03-31T07:00:27;12.50;99.90
17348;DHT22;8791;50.876;4.342;2023-03-31T07:02:54;12.50;99.90
17348;DHT22;8791;50.876;4.342;2023-03-31T07:05:21;12.40;99.90
17348;DHT22;8791;50.876;4.342;2023-03-31T07:07:51;12.40;99.90
17348;DHT22;8791;50.876;4.342;2023-03-31T07:10:18;12.40;99.90
17348;DHT22;8791;50.876;4.342;2023-03-31T07:12:45;12.40;99.90
17348;DHT22;8791;50.876;4.342;2023-03-31T07:15:14;12.40;99.90
17348;DHT22;8791;50.876;4.342;2023-03-31T07:17:41;12.50;99.90
17348;DHT22;8791;50.876;4.342;2023-03-31T07:20:08;12.50;99.90
17348;DHT22;8791;50.876;4.342;2023-03-31T07:22:39;12.50;99.90
17348;DHT22;8791;50.876;4.342;2023-03-31T07:25:07;12.50;99.90
17348;DHT22;8791;50.876;4.342;2023-03-31T07:27:34;12.50;99.90
17348;DHT22;8791;50.876;4.342;2023-03-31T07:30:02;12.50;99.90
17348;DHT22;8791;50.876;4.342;2023-03-31T07:32:30;12.50;99.90
17348;DHT22;8791;50.876;4.342;2023-03-31T07:34:57;12.50;99.90
17348;DHT22;8791;50.876;4.342;2023-03-31T07:37:24;12.50;99.90
17348;DHT22;8791;50.876;4.342;2023-03-31T07:39:51;12.60;99.90
17348;DHT22;8791;50.876;4.342;2023-03-31T07:42:18;12.60;99.90
17348;DHT22;8791;50.876;4.342;2023-03-31T07:44:45;12.50;99.90
17348;DHT22;8791;50.876;4.342;2023-03-31T07:47:11;12.50;99.90
17348;DHT22;8791;50.876;4.342;2023-03-31T07:49:40;12.40;99.90
17348;DHT22;8791;50.876;4.342;2023-03-31T07:52:06;12.40;99.90
17348;DHT22;8791;50.876;4.342;2023-03-31T07:54:33;12.30;99.90
17348;DHT22;8791;50.876;4.342;2023-03-31T07:57:00;12.20;99.90
17348;DHT22;8791;50.876;4.342;2023-03-31T07:59:30;12.20;99.90
17348;DHT22;8791;50.876;4.342;2023-03-31T08:01:57;12.20;99.90
17348;DHT22;8791;50.876;4.342;2023-03-31T08:04:24;12.30;99.90
17348;DHT22;8791;50.876;4.342;2023-03-31T08:06:52;12.40;99.90
17348;DHT22;8791;50.876;4.342;2023-03-31T08:09:19;12.40;99.90
17348;DHT22;8791;50.876;4.342;2023-03-31T08:11:46;12.30;99.90
17348;DHT22;8791;50.876;4.342;2023-03-31T08:14:14;12.30;99.90
17348;DHT22;8791;50.876;4.342;2023-03-31T08:16:40;12.40;99.90
17348;DHT22;8791;50.876;4.342;2023-03-31T08:19:07;12.40;99.90
17348;DHT22;8791;50.876;4.342;2023-03-31T08:21:34;12.40;99.90
17348;DHT22;8791;50.876;4.342;2023-03-31T08:24:02;12.40;99.90
17348;DHT22;8791;50.876;4.342;2023-03-31T08:26:30;12.40;99.90
17348;DHT22;8791;50.876;4.342;2023-03-31T08:28:59;12.50;99.90
17348;DHT22;8791;50.876;4.342;2023-03-31T08:31:26;12.50;99.90
17348;DHT22;8791;50.876;4.342;2023-03-31T08:33:53;12.40;99.90
17348;DHT22;8791;50.876;4.342;2023-03-31T08:36:20;12.40;99.90
17348;DHT22;8791;50.876;4.342;2023-03-31T08:38:47;12.30;99.90
17348;DHT22;8791;50.876;4.342;2023-03-31T08:41:36;12.30;99.90
17348;DHT22;8791;50.876;4.342;2023-03-31T08:44:12;12.30;99.90
17348;DHT22;8791;50.876;4.342;2023-03-31T08:46:41;12.30;99.90
17348;DHT22;8791;50.876;4.342;2023-03-31T08:49:13;12.40;99.90
17348;DHT22;8791;50.876;4.342;2023-03-31T08:51:42;12.50;99.90
17348;DHT22;8791;50.876;4.342;2023-03-31T08:54:14;12.50;99.90
17348;DHT22;8791;50.876;4.342;2023-03-31T08:56:47;12.60;99.90
17348;DHT22;8791;50.876;4.342;2023-03-31T08:59:19;12.50;99.90
17348;DHT22;8791;50.876;4.342;2023-03-31T09:01:51;12.50;99.90
17348;DHT22;8791;50.876;4.342;2023-03-31T09:04:34;12.50;99.90
17348;DHT22;8791;50.876;4.342;2023-03-31T09:07:07;12.50;99.90
17348;DHT22;8791;50.876;4.342;2023-03-31T09:09:45;12.30;99.90
17348;DHT22;8791;50.876;4.342;2023-03-31T09:12:20;12.30;99.90
17348;DHT22;8791;50.876;4.342;2023-03-31T09:14:52;12.40;99.90
17348;DHT22;8791;50.876;4.342;2023-03-31T09:17:27;12.30;99.90
17348;DHT22;8791;50.876;4.342;2023-03-31T09:19:57;12.40;99.90
17348;DHT22;8791;50.876;4.342;2023-03-31T09:22:29;12.50;99.90
17348;DHT22;8791;50.876;4.342;2023-03-31T09:25:02;12.50;99.90
17348;DHT22;8791;50.876;4.342;2023-03-31T09:27:32;12.60;99.90
17348;DHT22;8791;50.876;4.342;2023-03-31T09:30:08;12.60;99.90
17348;DHT22;8791;50.876;4.342;2023-03-31T09:32:37;12.50;99.90
17348;DHT22;8791;50.876;4.342;2023-03-31T09:35:14;12.50;99.90
17348;DHT22;8791;50.876;4.342;2023-03-31T09:37:42;12.60;99.90
17348;DHT22;8791;50.876;4.342;2023-03-31T09:40:16;12.70;99.90
17348;DHT22;8791;50.876;4.342;2023-03-31T09:42:45;12.70;99.90
17348;DHT22;8791;50.876;4.342;2023-03-31T09:45:15;12.70;99.90
17348;DHT22;8791;50.876;4.342;2023-03-31T09:47:43;12.70;99.90
17348;DHT22;8791;50.876;4.342;2023-03-31T09:50:11;12.70;99.90
17348;DHT22;8791;50.876;4.342;2023-03-31T09:52:40;12.70;99.90
17348;DHT22;8791;50.876;4.342;2023-03-31T09:55:19;12.60;99.90
17348;DHT22;8791;50.876;4.342;2023-03-31T09:57:47;12.60;99.90
17348;DHT22;8791;50.876;4.342;2023-03-31T10:00:16;12.70;99.90
17348;DHT22;8791;50.876;4.342;2023-03-31T10:02:46;12.50;99.90
17348;DHT22;8791;50.876;4.342;2023-03-31T10:05:23;12.50;99.90
17348;DHT22;8791;50.876;4.342;2023-03-31T10:07:52;12.70;99.90
17348;DHT22;8791;50.876;4.342;2023-03-31T10:10:27;12.70;99.90
17348;DHT22;8791;50.876;4.342;2023-03-31T10:12:58;12.60;99.90
17348;DHT22;8791;50.876;4.342;2023-03-31T10:15:27;12.70;99.90
17348;DHT22;8791;50.876;4.342;2023-03-31T10:17:57;12.70;99.90
17348;DHT22;8791;50.876;4.342;2023-03-31T10:20:31;12.60;99.90
17348;DHT22;8791;50.876;4.342;2023-03-31T10:23:02;12.50;99.90
17348;DHT22;8791;50.876;4.342;2023-03-31T10:25:29;12.60;99.90
17348;DHT22;8791;50.876;4.342;2023-03-31T10:27:57;12.60;99.90
17348;DHT22;8791;50.876;4.342;2023-03-31T10:30:31;12.60;99.90
17348;DHT22;8791;50.876;4.342;2023-03-31T10:33:03;12.70;99.90
17348;DHT22;8791;50.876;4.342;2023-03-31T10:35:32;12.80;99.90
17348;DHT22;8791;50.876;4.342;2023-03-31T10:38:02;12.80;99.90
17348;DHT22;8791;50.876;4.342;2023-03-31T10:40:31;12.90;99.90
17348;DHT22;8791;50.876;4.342;2023-03-31T10:43:02;12.80;99.90
17348;DHT22;8791;50.876;4.342;2023-03-31T10:45:35;12.80;99.90
17348;DHT22;8791;50.876;4.342;2023-03-31T10:48:02;12.80;99.90
17348;DHT22;8791;50.876;4.342;2023-03-31T10:50:31;12.90;99.90
17348;DHT22;8791;50.876;4.342;2023-03-31T10:53:03;12.80;99.90
17348;DHT22;8791;50.876;4.342;2023-03-31T10:55:35;12.90;99.90
17348;DHT22;8791;50.876;4.342;2023-03-31T10:58:12;13.10;99.90
17348;DHT22;8791;50.876;4.342;2023-03-31T11:00:56;13.10;99.90
17348;DHT22;8791;50.876;4.342;2023-03-31T11:03:43;12.90;99.90
17348;DHT22;8791;50.876;4.342;2023-03-31T11:06:19;13.00;99.90
17348;DHT22;8791;50.876;4.342;2023-03-31T11:08:54;13.00;99.90
17348;DHT22;8791;50.876;4.342;2023-03-31T11:11:35;12.80;99.90
17348;DHT22;8791;50.876;4.342;2023-03-31T11:14:12;12.80;99.90
17348;DHT22;8791;50.876;4.342;2023-03-31T11:16:46;12.80;99.90
17348;DHT22;8791;50.876;4.342;2023-03-31T11:19:25;12.80;99.90
17348;DHT22;8791;50.876;4.342;2023-03-31T11:22:03;12.90;99.90
17348;DHT22;8791;50.876;4.342;2023-03-31T11:24:46;12.90;99.90
17348;DHT22;8791;50.876;4.342;2023-03-31T11:27:29;13.00;99.90
17348;DHT22;8791;50.876;4.342;2023-03-31T11:30:07;13.00;99.90
17348;DHT22;8791;50.876;4.342;2023-03-31T11:32:51;13.10;99.90
17348;DHT22;8791;50.876;4.342;2023-03-31T11:35:36;13.30;99.90
17348;DHT22;8791;50.876;4.342;2023-03-31T11:38:27;13.40;99.90
17348;DHT22;8791;50.876;4.342;2023-03-31T11:41:01;13.50;99.90
17348;DHT22;8791;50.876;4.342;2023-03-31T11:43:34;13.60;99.90
17348;DHT22;8791;50.876;4.342;2023-03-31T11:46:08;13.70;99.90
17348;DHT22;8791;50.876;4.342;2023-03-31T11:48:42;13.70;99.90
17348;DHT22;8791;50.876;4.342;2023-03-31T11:51:14;13.70;99.90
17348;DHT22;8791;50.876;4.342;2023-03-31T11:53:42;13.60;99.90
17348;DHT22;8791;50.876;4.342;2023-03-31T11:56:11;13.60;99.90
17348;DHT22;8791;50.876;4.342;2023-03-31T11:58:41;13.50;99.90
17348;DHT22;8791;50.876;4.342;2023-03-31T12:01:16;13.50;99.90
17348;DHT22;8791;50.876;4.342;2023-03-31T12:03:53;13.50;99.90
17348;DHT22;8791;50.876;4.342;2023-03-31T12:06:26;13.50;99.90
17348;DHT22;8791;50.876;4.342;2023-03-31T12:09:03;13.20;99.90
17348;DHT22;8791;50.876;4.342;2023-03-31T12:11:35;13.10;99.90
17348;DHT22;8791;50.876;4.342;2023-03-31T12:14:14;13.00;99.90
17348;DHT22;8791;50.876;4.342;2023-03-31T12:16:51;12.70;99.90
17348;DHT22;8791;50.876;4.342;2023-03-31T12:19:23;12.50;99.90
17348;DHT22;8791;50.876;4.342;2023-03-31T12:21:55;12.30;99.90
17348;DHT22;8791;50.876;4.342;2023-03-31T12:24:24;12.20;99.90
17348;DHT22;8791;50.876;4.342;2023-03-31T12:27:01;12.20;99.90
17348;DHT22;8791;50.876;4.342;2023-03-31T12:29:33;12.10;99.90
17348;DHT22;8791;50.876;4.342;2023-03-31T12:32:05;12.10;99.90
17348;DHT22;8791;50.876;4.342;2023-03-31T12:34:39;12.00;99.90
17348;DHT22;8791;50.876;4.342;2023-03-31T12:37:26;12.00;99.90
17348;DHT22;8791;50.876;4.342;2023-03-31T12:40:03;12.10;99.90
17348;DHT22;8791;50.876;4.342;2023-03-31T12:42:55;12.30;99.90
17348;DHT22;8791;50.876;4.342;2023-03-31T12:45:26;12.50;99.90
17348;DHT22;8791;50.876;4.342;2023-03-31T12:48:16;12.60;99.90
17348;DHT22;8791;50.876;4.342;2023-03-31T12:50:59;12.60;99.90
17348;DHT22;8791;50.876;4.342;2023-03-31T12:53:36;12.60;99.90
17348;DHT22;8791;50.876;4.342;2023-03-31T12:56:04;12.70;99.90
17348;DHT22;8791;50.876;4.342;2023-03-31T12:58:42;12.80;99.90
17348;DHT22;8791;50.876;4.342;2023-03-31T13:01:13;12.90;99.90
17348;DHT22;8791;50.876;4.342;2023-03-31T13:04:07;13.00;99.90
17348;DHT22;8791;50.876;4.342;2023-03-31T13:06:55;13.10;99.90
17348;DHT22;8791;50.876;4.342;2023-03-31T13:09:44;13.30;99.90
17348;DHT22;8791;50.876;4.342;2023-03-31T13:12:16;13.20;99.90
17348;DHT22;8791;50.876;4.342;2023-03-31T13:14:45;13.10;99.90
17348;DHT22;8791;50.876;4.342;2023-03-31T13:17:24;13.10;99.90
17348;DHT22;8791;50.876;4.342;2023-03-31T13:19:54;12.90;99.90
17348;DHT22;8791;50.876;4.342;2023-03-31T13:22:31;12.50;99.90
17348;DHT22;8791;50.876;4.342;2023-03-31T13:25:39;12.50;99.90
17348;DHT22;8791;50.876;4.342;2023-03-31T13:28:17;12.70;99.90
17348;DHT22;8791;50.876;4.342;2023-03-31T13:30:53;12.60;99.90
17348;DHT22;8791;50.876;4.342;2023-03-31T13:33:24;12.60;99.90
17348;DHT22;8791;50.876;4.342;2023-03-31T13:36:03;12.50;99.90
17348;DHT22;8791;50.876;4.342;2023-03-31T13:38:44;12.40;99.90
17348;DHT22;8791;50.876;4.342;2023-03-31T13:41:31;12.40;99.90
17348;DHT22;8791;50.876;4.342;2023-03-31T13:44:32;12.50;99.90
17348;DHT22;8791;50.876;4.342;2023-03-31T13:53:20;12.40;99.90
17348;DHT22;8791;50.876;4.342;2023-03-31T13:56:00;12.40;99.90
17348;DHT22;8791;50.876;4.342;2023-03-31T13:59:02;12.20;99.90
17348;DHT22;8791;50.876;4.342;2023-03-31T14:01:43;12.10;99.90
17348;DHT22;8791;50.876;4.342;2023-03-31T14:04:21;12.20;99.90
17348;DHT22;8791;50.876;4.342;2023-03-31T14:06:53;12.20;99.90
17348;DHT22;8791;50.876;4.342;2023-03-31T14:09:25;12.10;99.90
17348;DHT22;8791;50.876;4.342;2023-03-31T14:11:57;12.30;99.90
17348;DHT22;8791;50.876;4.342;2023-03-31T14:14:24;12.40;99.90
17348;DHT22;8791;50.876;4.342;2023-03-31T14:16:54;12.40;99.90
17348;DHT22;8791;50.876;4.342;2023-03-31T14:19:42;12.30;99.90
17348;DHT22;8791;50.876;4.342;2023-03-31T14:22:18;12.30;99.90
17348;DHT22;8791;50.876;4.342;2023-03-31T14:24:54;12.30;99.90
17348;DHT22;8791;50.876;4.342;2023-03-31T14:27:37;12.30;99.90
17348;DHT22;8791;50.876;4.342;2023-03-31T14:30:15;12.20;99.90
17348;DHT22;8791;50.876;4.342;2023-03-31T14:33:02;12.20;99.90
17348;DHT22;8791;50.876;4.342;2023-03-31T14:35:34;12.20;99.90
17348;DHT22;8791;50.876;4.342;2023-03-31T14:38:08;12.20;99.90
17348;DHT22;8791;50.876;4.342;2023-03-31T14:40:43;12.50;99.90
17348;DHT22;8791;50.876;4.342;2023-03-31T14:43:18;12.50;99.90
17348;DHT22;8791;50.876;4.342;2023-03-31T14:45:45;12.50;99.90
17348;DHT22;8791;50.876;4.342;2023-03-31T14:48:13;12.60;99.90
17348;DHT22;8791;50.876;4.342;2023-03-31T14:50:42;12.70;99.90
17348;DHT22;8791;50.876;4.342;2023-03-31T14:53:13;12.60;99.90
17348;DHT22;8791;50.876;4.342;2023-03-31T14:55:42;12.70;99.90
17348;DHT22;8791;50.876;4.342;2023-03-31T14:58:14;12.80;99.90
17348;DHT22;8791;50.876;4.342;2023-03-31T15:00:46;12.90;99.90
17348;DHT22;8791;50.876;4.342;2023-03-31T15:03:14;12.60;99.90
17348;DHT22;8791;50.876;4.342;2023-03-31T15:05:42;12.30;99.90
17348;DHT22;8791;50.876;4.342;2023-03-31T15:08:13;12.20;99.90
17348;DHT22;8791;50.876;4.342;2023-03-31T15:10:44;12.30;99.90
17348;DHT22;8791;50.876;4.342;2023-03-31T15:13:18;12.30;99.90
17348;DHT22;8791;50.876;4.342;2023-03-31T15:15:45;12.10;99.90
17348;DHT22;8791;50.876;4.342;2023-03-31T15:18:14;11.90;99.90
17348;DHT22;8791;50.876;4.342;2023-03-31T15:20:42;11.70;99.90
17348;DHT22;8791;50.876;4.342;2023-03-31T15:23:19;11.80;99.90
17348;DHT22;8791;50.876;4.342;2023-03-31T15:25:53;12.10;99.90
17348;DHT22;8791;50.876;4.342;2023-03-31T15:28:21;12.40;99.90
17348;DHT22;8791;50.876;4.342;2023-03-31T15:30:49;12.50;99.90
17348;DHT22;8791;50.876;4.342;2023-03-31T15:33:20;12.50;99.90
17348;DHT22;8791;50.876;4.342;2023-03-31T15:35:48;12.30;99.90
17348;DHT22;8791;50.876;4.342;2023-03-31T15:38:16;12.30;99.90
17348;DHT22;8791;50.876;4.342;2023-03-31T15:40:47;12.30;99.90
17348;DHT22;8791;50.876;4.342;2023-03-31T15:43:18;12.40;99.90
17348;DHT22;8791;50.876;4.342;2023-03-31T15:45:54;12.10;99.90
17348;DHT22;8791;50.876;4.342;2023-03-31T15:48:23;12.10;99.90
17348;DHT22;8791;50.876;4.342;2023-03-31T15:50:58;12.10;99.90
17348;DHT22;8791;50.876;4.342;2023-03-31T15:53:34;12.00;99.90
17348;DHT22;8791;50.876;4.342;2023-03-31T15:56:01;11.80;99.90
17348;DHT22;8791;50.876;4.342;2023-03-31T15:58:55;11.70;99.90
17348;DHT22;8791;50.876;4.342;2023-03-31T16:01:26;11.70;99.90
17348;DHT22;8791;50.876;4.342;2023-03-31T16:03:54;11.80;99.90
17348;DHT22;8791;50.876;4.342;2023-03-31T16:06:27;11.80;99.90
17348;DHT22;8791;50.876;4.342;2023-03-31T16:08:58;11.90;99.90
17348;DHT22;8791;50.876;4.342;2023-03-31T16:11:34;11.60;99.90
17348;DHT22;8791;50.876;4.342;2023-03-31T16:14:07;11.60;99.90
17348;DHT22;8791;50.876;4.342;2023-03-31T16:16:36;11.60;99.90
17348;DHT22;8791;50.876;4.342;2023-03-31T16:19:06;11.40;99.90
17348;DHT22;8791;50.876;4.342;2023-03-31T16:21:37;11.40;99.90
17348;DHT22;8791;50.876;4.342;2023-03-31T16:24:05;11.40;99.90